createdAt,value
2023-05-25T00:02:07.746Z,5.85
2023-05-25T00:04:35.027Z,6.38
2023-05-25T00:07:02.208Z,8.00
2023-05-25T00:09:29.346Z,5.65
2023-05-25T00:11:56.358Z,5.50
2023-05-25T00:14:23.316Z,5.47
2023-05-25T00:16:50.300Z,5.63
2023-05-25T00:19:17.244Z,7.10
2023-05-25T00:21:44.774Z,4.82
2023-05-25T00:24:11.724Z,4.85
2023-05-25T00:26:38.613Z,5.28
2023-05-25T00:29:05.537Z,4.78
2023-05-25T00:31:32.540Z,3.88
2023-05-25T00:33:59.673Z,3.20
2023-05-25T00:36:26.608Z,4.05
2023-05-25T00:38:53.545Z,3.30
2023-05-25T00:41:20.582Z,4.10
2023-05-25T00:43:47.615Z,3.25
2023-05-25T00:46:17.633Z,3.10
2023-05-25T00:48:44.580Z,3.75
2023-05-25T00:51:11.557Z,4.22
2023-05-25T00:53:38.513Z,3.35
2023-05-25T00:56:18.107Z,5.07
2023-05-25T00:58:45.068Z,4.82
2023-05-25T01:01:12.016Z,3.00
2023-05-25T01:03:40.426Z,2.88
2023-05-25T01:06:09.706Z,4.63
2023-05-25T01:08:36.642Z,3.05
2023-05-25T01:11:03.867Z,3.53
2023-05-25T01:13:30.844Z,2.80
2023-05-25T01:15:58.213Z,4.93
2023-05-25T01:18:25.206Z,3.40
2023-05-25T01:21:05.544Z,3.10
2023-05-25T01:23:34.503Z,3.78
2023-05-25T01:26:05.680Z,3.42
2023-05-25T01:28:42.978Z,3.20
2023-05-25T01:31:09.929Z,2.80
2023-05-25T01:33:36.895Z,3.05
2023-05-25T01:36:04.182Z,3.72
2023-05-25T01:38:31.171Z,4.00
2023-05-25T01:40:58.116Z,3.20
2023-05-25T01:43:25.520Z,5.05
2023-05-25T01:45:53.167Z,3.20
2023-05-25T01:48:30.866Z,3.58
2023-05-25T01:51:25.936Z,3.60
2023-05-25T01:54:03.379Z,3.88
2023-05-25T01:56:30.332Z,5.28
2023-05-25T01:58:57.314Z,3.85
2023-05-25T02:01:24.319Z,4.22
2023-05-25T02:03:51.777Z,2.90
2023-05-25T02:06:18.829Z,2.15
2023-05-25T02:08:45.761Z,3.40
2023-05-25T02:11:14.119Z,1.77
2023-05-25T02:13:41.182Z,1.55
2023-05-25T02:16:08.341Z,1.20
2023-05-25T02:18:35.289Z,1.50
2023-05-25T02:21:02.280Z,1.65
2023-05-25T02:23:29.556Z,2.13
2023-05-25T02:25:56.458Z,1.60
2023-05-25T02:28:23.395Z,1.70
2023-05-25T02:30:50.407Z,2.25
2023-05-25T02:33:17.391Z,2.00
2023-05-25T02:35:44.509Z,1.60
2023-05-25T02:38:11.577Z,2.03
2023-05-25T02:40:38.511Z,1.77
2023-05-25T02:43:05.416Z,2.45
2023-05-25T02:45:32.309Z,1.70
2023-05-25T02:47:59.312Z,1.70
2023-05-25T02:50:26.308Z,2.42
2023-05-25T02:52:53.662Z,3.50
2023-05-25T02:55:20.597Z,5.05
2023-05-25T02:57:47.604Z,1.52
2023-05-25T03:00:15.379Z,2.83
2023-05-25T03:02:42.351Z,1.50
2023-05-25T03:05:09.391Z,1.55
2023-05-25T03:07:36.403Z,2.03
2023-05-25T03:10:03.790Z,2.22
2023-05-25T03:12:30.712Z,2.47
2023-05-25T03:15:02.144Z,3.42
2023-05-25T03:17:29.069Z,1.70
2023-05-25T03:19:56.148Z,2.25
2023-05-25T03:22:23.134Z,2.70
2023-05-25T03:24:50.084Z,1.63
2023-05-25T03:27:17.014Z,1.92
2023-05-25T03:29:43.939Z,2.00
2023-05-25T03:32:10.925Z,1.50
2023-05-25T03:34:37.859Z,2.30
2023-05-25T03:37:04.996Z,1.73
2023-05-25T03:39:31.916Z,2.28
2023-05-25T03:41:58.839Z,1.90
2023-05-25T03:44:25.789Z,1.88
2023-05-25T03:46:52.713Z,1.70
2023-05-25T03:49:19.695Z,1.73
2023-05-25T03:51:46.582Z,1.63
2023-05-25T03:54:13.710Z,3.00
2023-05-25T03:56:40.590Z,2.42
2023-05-25T03:59:07.591Z,1.80
2023-05-25T04:01:34.461Z,3.67
2023-05-25T04:04:01.452Z,2.38
2023-05-25T04:06:28.418Z,3.03
2023-05-25T04:08:55.323Z,2.05
2023-05-25T04:11:22.256Z,1.17
2023-05-25T04:13:49.163Z,0.93
2023-05-25T04:16:16.264Z,1.30
2023-05-25T04:18:43.152Z,1.20
2023-05-25T04:21:10.046Z,1.60
2023-05-25T04:23:36.957Z,1.15
2023-05-25T04:26:03.913Z,1.70
2023-05-25T04:28:31.223Z,2.05
2023-05-25T04:30:58.293Z,1.20
2023-05-25T04:33:25.177Z,1.35
2023-05-25T04:35:52.070Z,1.23
2023-05-25T04:38:18.968Z,1.50
2023-05-25T04:40:45.989Z,1.20
2023-05-25T04:43:12.976Z,1.30
2023-05-25T04:45:40.128Z,2.60
2023-05-25T04:48:07.199Z,2.38
2023-05-25T04:50:34.247Z,1.30
2023-05-25T04:53:01.232Z,2.17
2023-05-25T04:55:28.466Z,1.85
2023-05-25T04:57:55.441Z,2.05
2023-05-25T05:00:22.466Z,1.10
2023-05-25T05:02:49.603Z,1.85
2023-05-25T05:05:17.186Z,2.85
2023-05-25T05:07:44.301Z,1.60
2023-05-25T05:10:11.427Z,1.98
2023-05-25T05:12:38.513Z,4.53
2023-05-25T05:15:06.215Z,1.65
2023-05-25T05:17:33.249Z,1.88
2023-05-25T05:20:00.468Z,1.40
2023-05-25T05:22:27.638Z,1.20
2023-05-25T05:24:54.689Z,1.20
2023-05-25T05:27:21.684Z,2.67
2023-05-25T05:29:48.635Z,1.15
2023-05-25T05:32:15.621Z,0.82
2023-05-25T05:34:42.578Z,2.15
2023-05-25T05:37:09.548Z,1.48
2023-05-25T05:39:37.048Z,0.80
2023-05-25T05:42:04.232Z,1.10
2023-05-25T05:44:31.159Z,1.95
2023-05-25T05:46:59.106Z,1.33
2023-05-25T05:49:27.685Z,0.90
2023-05-25T05:51:54.681Z,1.50
2023-05-25T05:54:21.709Z,1.00
2023-05-25T05:56:49.176Z,1.00
2023-05-25T05:59:16.214Z,0.75
2023-05-25T06:01:43.152Z,2.83
2023-05-25T06:04:10.349Z,0.93
2023-05-25T06:06:37.287Z,0.95
2023-05-25T06:09:04.743Z,0.80
2023-05-25T06:11:31.808Z,1.10
2023-05-25T06:13:58.841Z,0.70
2023-05-25T06:16:25.912Z,1.23
2023-05-25T06:18:52.905Z,0.75
2023-05-25T06:21:19.871Z,0.75
2023-05-25T06:23:46.883Z,0.93
2023-05-25T06:26:13.865Z,0.82
2023-05-25T06:28:40.888Z,0.70
2023-05-25T06:31:07.936Z,1.02
2023-05-25T06:33:35.027Z,1.05
2023-05-25T06:36:02.029Z,1.63
2023-05-25T06:38:29.118Z,1.70
2023-05-25T06:40:56.172Z,0.88
2023-05-25T06:43:23.175Z,0.85
2023-05-25T06:45:50.234Z,0.60
2023-05-25T06:48:17.273Z,0.70
2023-05-25T06:50:45.029Z,0.85
2023-05-25T06:53:12.265Z,0.80
2023-05-25T06:55:39.220Z,2.40
2023-05-25T06:58:06.174Z,0.93
2023-05-25T07:00:33.963Z,2.05
2023-05-25T07:03:01.057Z,1.10
2023-05-25T07:05:28.097Z,1.10
2023-05-25T07:07:55.043Z,1.85
2023-05-25T07:10:22.778Z,1.50
2023-05-25T07:12:49.808Z,1.33
2023-05-25T07:15:16.963Z,2.08
2023-05-25T07:17:44.106Z,2.05
2023-05-25T07:20:11.881Z,4.35
2023-05-25T07:22:39.008Z,1.50
2023-05-25T07:25:06.598Z,2.25
2023-05-25T07:27:33.667Z,1.60
2023-05-25T07:30:00.613Z,2.38
2023-05-25T07:32:27.624Z,2.88
2023-05-25T07:34:54.604Z,2.13
2023-05-25T07:37:21.624Z,3.53
2023-05-25T07:39:48.586Z,2.78
2023-05-25T07:42:15.574Z,3.10
2023-05-25T07:44:42.536Z,2.55
2023-05-25T07:47:11.286Z,4.20
2023-05-25T07:49:38.392Z,3.35
2023-05-25T07:52:05.492Z,4.38
2023-05-25T07:54:32.717Z,3.85
2023-05-25T07:56:59.775Z,4.13
2023-05-25T07:59:26.810Z,3.75
2023-05-25T08:01:54.098Z,2.92
2023-05-25T08:04:21.238Z,4.57
2023-05-25T08:06:48.294Z,3.50
2023-05-25T08:09:15.347Z,4.22
2023-05-25T08:11:42.282Z,4.78
2023-05-25T08:14:09.349Z,4.00
2023-05-25T08:16:36.396Z,4.38
2023-05-25T08:19:03.524Z,4.40
2023-05-25T08:21:31.791Z,4.30
2023-05-25T08:23:59.960Z,5.40
2023-05-25T08:26:41.355Z,4.82
2023-05-25T08:29:14.267Z,6.60
2023-05-25T08:31:41.313Z,5.60
2023-05-25T08:34:08.430Z,4.32
2023-05-25T08:36:35.431Z,4.32
2023-05-25T08:39:03.281Z,7.60
2023-05-25T08:41:30.333Z,6.10
2023-05-25T08:43:57.354Z,4.82
2023-05-25T08:46:29.830Z,5.30
2023-05-25T08:49:24.932Z,5.93
2023-05-25T08:51:53.775Z,6.90
2023-05-25T08:54:32.637Z,5.80
2023-05-25T08:57:08.128Z,5.78
2023-05-25T09:00:07.396Z,5.35
2023-05-25T09:02:50.893Z,4.88
2023-05-25T09:05:18.288Z,6.05
2023-05-25T09:07:45.287Z,8.13
2023-05-25T09:10:12.337Z,6.68
2023-05-25T09:12:39.431Z,6.03
2023-05-25T09:15:07.248Z,8.63
2023-05-25T09:17:37.404Z,7.78
2023-05-25T09:20:06.279Z,4.75
2023-05-25T09:22:33.294Z,6.68
2023-05-25T09:25:00.325Z,4.60
2023-05-25T09:27:27.285Z,4.93
2023-05-25T09:29:54.300Z,7.15
2023-05-25T09:32:21.351Z,6.30
2023-05-25T09:34:48.472Z,6.90
2023-05-25T09:37:17.117Z,5.60
2023-05-25T09:39:44.765Z,5.43
2023-05-25T09:42:12.180Z,6.00
2023-05-25T09:44:41.006Z,7.32
2023-05-25T09:47:08.006Z,6.03
2023-05-25T09:49:35.267Z,6.00
2023-05-25T09:52:02.464Z,5.45
2023-05-25T09:54:29.494Z,5.57
2023-05-25T09:56:56.498Z,6.25
2023-05-25T09:59:23.533Z,5.28
2023-05-25T10:01:52.168Z,5.70
2023-05-25T10:04:19.267Z,5.38
2023-05-25T10:06:46.936Z,6.40
2023-05-25T10:09:13.956Z,12.07
2023-05-25T10:11:41.136Z,5.60
2023-05-25T10:14:08.110Z,9.88
2023-05-25T10:16:35.445Z,8.30
2023-05-25T10:19:13.029Z,6.25
2023-05-25T10:21:40.153Z,6.80
2023-05-25T10:24:34.393Z,6.45
2023-05-25T10:27:10.848Z,6.75
2023-05-25T10:29:48.230Z,6.72
2023-05-25T10:32:16.680Z,6.50
2023-05-25T10:34:43.729Z,7.55
2023-05-25T10:37:10.719Z,7.65
2023-05-25T10:39:37.711Z,7.18
2023-05-25T10:42:05.047Z,7.88
2023-05-25T10:44:32.120Z,6.93
2023-05-25T10:46:59.635Z,6.93
2023-05-25T10:49:58.161Z,7.53
2023-05-25T10:52:29.194Z,6.75
2023-05-25T10:55:00.332Z,6.97
2023-05-25T10:57:27.564Z,10.20
2023-05-25T11:00:06.213Z,8.48
2023-05-25T11:02:53.018Z,6.43
2023-05-25T11:05:33.391Z,7.28
2023-05-25T11:08:09.942Z,7.75
2023-05-25T11:10:49.046Z,6.13
2023-05-25T11:13:31.482Z,6.45
2023-05-25T11:16:23.870Z,6.82
2023-05-25T11:18:58.083Z,7.93
2023-05-25T11:21:28.079Z,6.78
2023-05-25T11:23:58.558Z,5.97
2023-05-25T11:26:28.184Z,6.57
2023-05-25T11:28:56.813Z,6.13
2023-05-25T11:31:33.435Z,5.78
2023-05-25T11:34:04.150Z,5.22
2023-05-25T11:36:32.275Z,5.40
2023-05-25T11:39:04.692Z,4.78
2023-05-25T11:41:35.880Z,4.72
2023-05-25T11:44:06.399Z,5.13
2023-05-25T11:46:33.634Z,5.25
2023-05-25T11:49:00.948Z,5.15
2023-05-25T11:51:29.290Z,5.10
2023-05-25T11:53:56.458Z,7.65
2023-05-25T11:56:34.349Z,5.85
2023-05-25T11:59:02.783Z,6.00
2023-05-25T12:01:30.179Z,5.88
2023-05-25T12:03:57.395Z,6.32
2023-05-25T12:06:32.524Z,5.25
2023-05-25T12:09:01.089Z,14.10
2023-05-25T12:11:35.374Z,6.28
2023-05-25T12:14:06.612Z,6.05
2023-05-25T12:16:34.870Z,5.38
2023-05-25T12:19:01.875Z,5.07
2023-05-25T12:21:28.862Z,5.15
2023-05-25T12:23:55.840Z,7.10
2023-05-25T12:26:22.749Z,7.85
2023-05-25T12:29:06.235Z,7.90
2023-05-25T12:31:37.295Z,5.88
2023-05-25T12:34:14.407Z,8.23
2023-05-25T12:36:48.659Z,6.10
2023-05-25T12:39:17.071Z,6.72
2023-05-25T12:41:53.257Z,9.98
2023-05-25T12:44:26.975Z,5.78
2023-05-25T12:46:55.423Z,7.13
2023-05-25T12:49:33.202Z,7.30
2023-05-25T12:52:02.448Z,4.85
2023-05-25T12:54:47.507Z,4.75
2023-05-25T12:57:16.185Z,5.78
2023-05-25T12:59:45.972Z,6.97
2023-05-25T13:02:14.043Z,7.90
2023-05-25T13:04:41.954Z,6.00
2023-05-25T13:07:09.231Z,5.28
2023-05-25T13:09:36.349Z,6.07
2023-05-25T13:12:03.487Z,5.53
2023-05-25T13:14:30.515Z,5.60
2023-05-25T13:16:57.591Z,6.53
2023-05-25T13:19:25.550Z,9.23
2023-05-25T13:21:52.705Z,6.07
2023-05-25T13:24:19.729Z,5.30
2023-05-25T13:26:49.883Z,6.10
2023-05-25T13:29:17.846Z,7.28
2023-05-25T13:31:44.874Z,6.40
2023-05-25T13:34:11.869Z,6.82
2023-05-25T13:36:38.862Z,5.47
2023-05-25T13:39:05.793Z,5.80
2023-05-25T13:41:33.426Z,6.30
2023-05-25T13:44:00.359Z,5.88
2023-05-25T13:49:00.222Z,5.47
2023-05-25T13:51:27.185Z,5.68
2023-05-25T13:53:54.163Z,5.47
2023-05-25T13:56:21.089Z,5.55
2023-05-25T13:58:48.022Z,6.57
2023-05-25T14:01:16.226Z,5.55
2023-05-25T14:03:43.303Z,6.22
2023-05-25T14:06:10.885Z,6.50
2023-05-25T14:08:37.927Z,5.15
2023-05-25T14:11:04.906Z,4.35
2023-05-25T14:13:31.863Z,4.50
2023-05-25T14:15:58.799Z,4.80
2023-05-25T14:18:25.769Z,5.68
2023-05-25T14:20:52.747Z,7.22
2023-05-25T14:23:19.686Z,6.20
2023-05-25T14:25:47.146Z,5.57
2023-05-25T14:28:14.727Z,6.63
2023-05-25T14:30:41.721Z,6.63
2023-05-25T14:33:08.725Z,6.05
2023-05-25T14:35:35.636Z,5.75
2023-05-25T14:38:02.581Z,5.90
2023-05-25T14:40:29.518Z,8.27
2023-05-25T14:42:56.526Z,7.22
2023-05-25T14:45:23.780Z,7.30
2023-05-25T14:47:55.551Z,8.07
2023-05-25T14:50:30.210Z,6.60
2023-05-25T14:52:57.375Z,6.40
2023-05-25T14:55:25.401Z,6.53
2023-05-25T14:57:52.405Z,7.50
2023-05-25T15:00:19.568Z,5.47
2023-05-25T15:02:46.544Z,5.45
2023-05-25T15:05:13.473Z,8.02
2023-05-25T15:07:40.370Z,5.90
2023-05-25T15:10:08.491Z,5.28
2023-05-25T15:12:35.362Z,4.10
2023-05-25T15:15:03.252Z,3.40
2023-05-25T15:17:30.161Z,6.30
2023-05-25T15:19:57.083Z,5.65
2023-05-25T15:22:23.975Z,4.63
2023-05-25T15:24:50.946Z,5.88
2023-05-25T15:27:17.843Z,3.38
2023-05-25T15:29:44.782Z,4.13
2023-05-25T15:32:12.590Z,3.38
2023-05-25T15:34:39.949Z,4.68
2023-05-25T15:37:06.869Z,3.75
2023-05-25T15:39:33.794Z,3.28
2023-05-25T15:42:00.704Z,5.05
2023-05-25T15:44:27.703Z,4.97
2023-05-25T15:46:54.662Z,4.95
2023-05-25T15:49:21.621Z,6.63
2023-05-25T15:51:48.533Z,4.03
2023-05-25T15:54:15.536Z,5.60
2023-05-25T15:56:42.470Z,4.47
2023-05-25T15:59:09.397Z,4.03
2023-05-25T16:01:36.361Z,5.20
2023-05-25T16:04:06.400Z,2.70
2023-05-25T16:06:33.446Z,3.38
2023-05-25T16:09:00.373Z,2.83
2023-05-25T16:11:28.336Z,5.05
2023-05-25T16:13:55.437Z,3.42
2023-05-25T16:16:22.436Z,3.65
2023-05-25T16:18:49.343Z,3.58
2023-05-25T16:21:16.634Z,3.08
2023-05-25T16:23:43.561Z,4.53
2023-05-25T16:26:10.570Z,5.55
2023-05-25T16:28:37.770Z,4.13
2023-05-25T16:31:07.822Z,4.85
2023-05-25T16:33:34.784Z,3.70
2023-05-25T16:36:01.719Z,4.63
2023-05-25T16:38:28.672Z,6.47
2023-05-25T16:40:55.611Z,4.22
2023-05-25T16:43:22.541Z,5.50
2023-05-25T16:45:49.502Z,7.07
2023-05-25T16:48:16.613Z,4.00
2023-05-25T16:50:43.512Z,4.35
2023-05-25T16:53:10.420Z,4.35
2023-05-25T16:55:37.305Z,4.57
2023-05-25T16:58:04.278Z,6.45
2023-05-25T17:00:31.220Z,5.57
2023-05-25T17:02:58.416Z,8.75
2023-05-25T17:05:25.412Z,7.03
2023-05-25T17:07:52.397Z,9.98
2023-05-25T17:10:19.354Z,8.13
2023-05-25T17:12:46.320Z,6.10
2023-05-25T17:15:13.280Z,7.30
2023-05-25T17:17:40.315Z,5.90
2023-05-25T17:20:07.446Z,5.47
2023-05-25T17:22:34.405Z,6.05
2023-05-25T17:25:01.315Z,6.45
2023-05-25T17:27:28.244Z,4.57
2023-05-25T17:29:55.220Z,6.85
2023-05-25T17:32:22.252Z,4.88
2023-05-25T17:34:49.217Z,6.00
2023-05-25T17:37:16.178Z,6.88
2023-05-25T17:39:43.137Z,7.10
2023-05-25T17:42:10.092Z,5.60
2023-05-25T17:44:37.015Z,6.95
2023-05-25T17:47:04.023Z,5.75
2023-05-25T17:49:31.005Z,7.28
2023-05-25T17:51:57.982Z,15.57
2023-05-25T17:54:24.982Z,15.35
2023-05-25T17:56:52.203Z,8.98
2023-05-25T17:59:19.245Z,5.10
2023-05-25T18:01:46.230Z,5.38
2023-05-25T18:04:13.243Z,4.80
2023-05-25T18:06:40.513Z,5.00
2023-05-25T18:09:07.445Z,3.83
2023-05-25T18:11:34.317Z,5.78
2023-05-25T18:14:01.288Z,6.00
2023-05-25T18:16:28.229Z,4.85
2023-05-25T18:18:55.209Z,4.07
2023-05-25T18:21:22.147Z,3.92
2023-05-25T18:23:49.030Z,4.20
2023-05-25T18:26:16.052Z,5.57
2023-05-25T18:28:43.053Z,6.43
2023-05-25T18:31:10.148Z,5.88
2023-05-25T18:33:37.118Z,9.63
2023-05-25T18:36:04.363Z,5.93
2023-05-25T18:38:31.355Z,6.35
2023-05-25T18:40:58.331Z,5.85
2023-05-25T18:43:25.259Z,5.80
2023-05-25T18:45:52.435Z,5.90
2023-05-25T18:48:19.377Z,6.55
2023-05-25T18:50:46.293Z,7.22
2023-05-25T18:53:13.273Z,7.63
2023-05-25T18:55:40.235Z,6.65
2023-05-25T18:58:07.243Z,6.03
2023-05-25T19:00:34.247Z,7.28
2023-05-25T19:03:01.260Z,8.20
2023-05-25T19:05:28.238Z,9.27
2023-05-25T19:07:59.688Z,9.18
2023-05-25T19:10:27.212Z,9.50
2023-05-25T19:12:54.232Z,8.73
2023-05-25T19:15:21.380Z,10.88
2023-05-25T19:17:48.380Z,8.98
2023-05-25T19:20:15.538Z,11.07
2023-05-25T19:22:42.576Z,9.90
2023-05-25T19:25:09.519Z,9.68
2023-05-25T19:27:36.529Z,10.63
2023-05-25T19:30:04.097Z,9.77
2023-05-25T19:32:31.145Z,8.75
2023-05-25T19:34:58.180Z,9.27
2023-05-25T19:37:25.994Z,8.93
2023-05-25T19:39:52.978Z,10.13
2023-05-25T19:42:19.897Z,8.07
2023-05-25T19:44:46.833Z,10.02
2023-05-25T19:47:13.871Z,9.43
2023-05-25T19:49:40.858Z,11.25
2023-05-25T19:52:07.841Z,9.68
2023-05-25T19:54:34.870Z,9.50
2023-05-25T19:57:24.008Z,9.70
2023-05-25T20:06:06.427Z,10.77
2023-05-25T20:08:48.896Z,8.82
2023-05-25T20:11:21.254Z,9.50
2023-05-25T20:13:48.215Z,13.07
2023-05-25T20:15:14.680Z,9.80
2023-05-25T20:16:15.735Z,10.35
2023-05-25T20:18:42.670Z,9.75
2023-05-25T20:21:10.489Z,11.93
2023-05-25T20:23:37.455Z,12.07
2023-05-25T20:26:04.481Z,13.82
2023-05-25T20:28:31.399Z,12.80
2023-05-25T20:30:58.323Z,13.98
2023-05-25T20:33:25.234Z,11.95
2023-05-25T20:35:52.208Z,13.40
2023-05-25T20:38:19.163Z,13.93
2023-05-25T20:40:46.114Z,11.63
2023-05-25T20:43:13.110Z,12.75
2023-05-25T20:45:40.130Z,11.40
2023-05-25T20:48:07.271Z,10.98
2023-05-25T20:50:34.378Z,12.45
2023-05-25T20:53:01.333Z,12.15
2023-05-25T20:55:28.315Z,12.82
2023-05-25T20:57:55.298Z,10.60
2023-05-25T21:00:22.311Z,10.93
2023-05-25T21:02:49.515Z,9.00
2023-05-25T21:05:16.549Z,9.20
2023-05-25T21:07:43.698Z,9.73
2023-05-25T21:10:10.767Z,11.68
2023-05-25T21:12:37.768Z,13.52
2023-05-25T21:15:05.665Z,9.23
2023-05-25T21:17:32.633Z,8.63
2023-05-25T21:19:59.536Z,8.32
2023-05-25T21:22:26.483Z,7.80
2023-05-25T21:24:53.420Z,14.45
2023-05-25T21:27:20.386Z,8.88
2023-05-25T21:29:47.352Z,7.72
2023-05-25T21:32:14.449Z,9.07
2023-05-25T21:34:41.395Z,10.32
2023-05-25T21:37:08.353Z,9.38
2023-05-25T21:39:35.397Z,8.80
2023-05-25T21:42:02.413Z,7.80
2023-05-25T21:44:29.388Z,8.02
2023-05-25T21:46:56.376Z,10.70
2023-05-25T21:49:23.460Z,7.80
2023-05-25T21:51:50.422Z,8.38
2023-05-25T21:54:17.426Z,7.10
2023-05-25T21:56:44.328Z,8.93
2023-05-25T21:59:11.372Z,7.80
2023-05-25T22:01:38.343Z,9.00
2023-05-25T22:04:05.448Z,7.38
2023-05-25T22:06:32.402Z,7.75
2023-05-25T22:08:59.536Z,8.27
2023-05-25T22:11:26.545Z,6.85
2023-05-25T22:13:53.616Z,8.45
2023-05-25T22:16:20.684Z,8.38
2023-05-25T22:18:47.762Z,6.95
2023-05-25T22:21:15.014Z,9.45
2023-05-25T22:23:42.006Z,8.40
2023-05-25T22:26:09.461Z,7.65
2023-05-25T22:28:36.480Z,9.98
2023-05-25T22:31:03.606Z,6.82
2023-05-25T22:33:30.566Z,8.00
2023-05-25T22:35:57.579Z,6.45
2023-05-25T22:38:24.586Z,7.68
2023-05-25T22:40:51.561Z,6.13
2023-05-25T22:43:18.486Z,6.70
2023-05-25T22:45:45.696Z,6.75
2023-05-25T22:48:12.912Z,6.63
2023-05-25T22:50:39.946Z,8.68
2023-05-25T22:53:06.878Z,6.32
2023-05-25T22:55:33.848Z,6.80
2023-05-25T22:58:00.780Z,6.07
2023-05-25T23:00:27.767Z,4.85
2023-05-25T23:02:54.770Z,6.47
2023-05-25T23:05:21.941Z,8.75
2023-05-25T23:07:48.945Z,7.03
2023-05-25T23:10:16.276Z,6.38
2023-05-25T23:12:43.238Z,6.80
2023-05-25T23:15:11.212Z,6.78
2023-05-25T23:17:38.196Z,8.70
2023-05-25T23:20:05.930Z,5.90
2023-05-25T23:22:33.118Z,6.53
2023-05-25T23:25:00.026Z,5.95
2023-05-25T23:27:27.036Z,7.78
2023-05-25T23:29:54.087Z,7.07
2023-05-25T23:32:21.074Z,6.32
2023-05-25T23:34:48.016Z,8.10
2023-05-25T23:37:14.956Z,5.80
2023-05-25T23:39:41.930Z,5.53
2023-05-25T23:42:08.969Z,6.80
2023-05-25T23:44:36.001Z,6.25
2023-05-25T23:47:02.948Z,5.90
2023-05-25T23:49:29.893Z,6.18
2023-05-25T23:51:56.867Z,5.88
2023-05-25T23:54:23.832Z,6.57
2023-05-25T23:56:50.796Z,4.95
2023-05-25T23:59:17.699Z,5.32
